createdAt,value
2019-01-30T00:02:10.933Z,99232.72
2019-01-30T00:04:44.272Z,99222.66
2019-01-30T00:07:20.730Z,99222.21
2019-01-30T00:09:55.760Z,99217.62
2019-01-30T00:12:32.178Z,99223.91
2019-01-30T00:15:13.307Z,99221.02
2019-01-30T00:17:48.832Z,99220.21
2019-01-30T00:20:22.238Z,99216.01
2019-01-30T00:22:58.430Z,99210.13
2019-01-30T00:25:33.327Z,99213.89
2019-01-30T00:28:06.792Z,99208.52
2019-01-30T00:30:40.193Z,99205.20
2019-01-30T00:33:13.597Z,99198.86
2019-01-30T00:35:48.548Z,99197.20
2019-01-30T00:38:22.228Z,99191.81
2019-01-30T00:40:55.644Z,99195.16
2019-01-30T00:43:29.081Z,99199.33
2019-01-30T00:46:02.479Z,99198.07
2019-01-30T00:48:35.979Z,99191.78
2019-01-30T00:51:09.429Z,99189.70
2019-01-30T00:53:42.846Z,99184.73
2019-01-30T00:56:16.178Z,99181.81
2019-01-30T00:58:49.678Z,99179.70
2019-01-30T01:01:24.542Z,99185.16
2019-01-30T01:03:57.912Z,99183.50
2019-01-30T01:06:32.744Z,99175.59
2019-01-30T01:09:10.841Z,99168.03
2019-01-30T01:11:44.297Z,99171.39
2019-01-30T01:14:17.751Z,99166.36
2019-01-30T01:16:52.735Z,99162.19
2019-01-30T01:19:26.149Z,99164.27
2019-01-30T01:22:03.120Z,99164.67
2019-01-30T01:24:38.432Z,99161.73
2019-01-30T01:27:17.484Z,99159.27
2019-01-30T01:29:50.945Z,99158.04
2019-01-30T01:32:24.283Z,99159.30
2019-01-30T01:35:05.326Z,99153.91
2019-01-30T01:37:38.821Z,99152.63
2019-01-30T01:40:21.514Z,99150.97
2019-01-30T01:42:57.028Z,99148.86
2019-01-30T01:45:34.749Z,99148.47
2019-01-30T01:48:08.254Z,99135.88
2019-01-30T01:50:44.031Z,99140.52
2019-01-30T01:53:19.053Z,99138.00
2019-01-30T01:55:52.362Z,99132.14
2019-01-30T01:58:25.725Z,99129.60
2019-01-30T02:00:59.119Z,99128.34
2019-01-30T02:03:32.485Z,99129.16
2019-01-30T02:06:05.946Z,99127.09
2019-01-30T02:08:39.392Z,99115.35
2019-01-30T02:11:12.779Z,99115.36
2019-01-30T02:13:46.237Z,99112.44
2019-01-30T02:16:19.649Z,99107.84
2019-01-30T02:18:53.098Z,99109.16
2019-01-30T02:21:26.443Z,99105.78
2019-01-30T02:23:59.815Z,99108.30
2019-01-30T02:26:33.168Z,99106.23
2019-01-30T02:29:06.685Z,99108.77
2019-01-30T02:31:40.094Z,99109.97
2019-01-30T02:34:13.546Z,99103.66
2019-01-30T02:36:58.559Z,99105.33
2019-01-30T02:39:32.072Z,99099.90
2019-01-30T02:42:05.491Z,99095.27
2019-01-30T02:44:38.886Z,99087.73
2019-01-30T02:47:12.227Z,99094.03
2019-01-30T02:49:45.673Z,99086.47
2019-01-30T02:52:19.007Z,99089.44
2019-01-30T02:54:52.464Z,99082.74
2019-01-30T02:57:25.867Z,99080.64
2019-01-30T02:59:59.393Z,99078.51
2019-01-30T03:02:40.239Z,99078.95
2019-01-30T03:05:15.130Z,99074.70
2019-01-30T03:07:54.258Z,99075.92
2019-01-30T03:10:32.264Z,99075.92
2019-01-30T03:13:07.803Z,99072.12
2019-01-30T03:15:45.881Z,99070.00
2019-01-30T03:18:19.228Z,99073.33
2019-01-30T03:20:57.561Z,99073.80
2019-01-30T03:23:33.414Z,99066.23
2019-01-30T03:26:08.985Z,99063.70
2019-01-30T03:28:44.448Z,99066.25
2019-01-30T03:31:21.065Z,99070.42
2019-01-30T03:33:57.080Z,99073.75
2019-01-30T03:36:30.422Z,99066.25
2019-01-30T03:39:05.516Z,99062.08
2019-01-30T03:41:40.461Z,99064.13
2019-01-30T03:44:13.990Z,99065.34
2019-01-30T03:46:49.026Z,99060.34
2019-01-30T03:49:23.961Z,99061.23
2019-01-30T03:51:57.420Z,99067.09
2019-01-30T03:54:30.873Z,99063.72
2019-01-30T03:57:04.289Z,99062.02
2019-01-30T03:59:37.812Z,99060.36
2019-01-30T04:02:11.253Z,99061.59
2019-01-30T04:04:47.817Z,99054.06
2019-01-30T04:07:21.160Z,99050.73
2019-01-30T04:09:57.397Z,99049.48
2019-01-30T04:12:30.820Z,99046.11
2019-01-30T04:15:10.133Z,99039.88
2019-01-30T04:17:43.671Z,99044.02
2019-01-30T04:20:21.883Z,99042.33
2019-01-30T04:22:57.766Z,99034.78
2019-01-30T04:25:31.230Z,99036.50
2019-01-30T04:28:05.003Z,99034.82
2019-01-30T04:30:38.455Z,99037.73
2019-01-30T04:33:11.869Z,99033.05
2019-01-30T04:35:51.125Z,99034.30
2019-01-30T04:38:24.715Z,99025.52
2019-01-30T04:41:01.066Z,99030.17
2019-01-30T04:43:34.490Z,99028.45
2019-01-30T04:46:07.954Z,99032.18
2019-01-30T04:48:42.955Z,99020.52
2019-01-30T04:51:18.465Z,99026.80
2019-01-30T04:54:14.155Z,99024.20
2019-01-30T04:56:52.180Z,99024.19
2019-01-30T04:59:30.122Z,99020.91
2019-01-30T05:02:05.136Z,99014.19
2019-01-30T05:04:42.211Z,99004.98
2019-01-30T05:07:16.946Z,99004.14
2019-01-30T05:09:50.473Z,99007.86
2019-01-30T05:12:26.629Z,98997.88
2019-01-30T05:15:00.241Z,99000.84
2019-01-30T05:17:36.862Z,98999.48
2019-01-30T05:20:14.067Z,98993.60
2019-01-30T05:22:51.921Z,98997.75
2019-01-30T05:25:29.841Z,98996.06
2019-01-30T05:28:03.259Z,98999.02
2019-01-30T05:30:39.704Z,98993.95
2019-01-30T05:33:13.118Z,98990.56
2019-01-30T05:35:48.087Z,98993.00
2019-01-30T05:38:24.006Z,98993.00
2019-01-30T05:40:57.321Z,98997.61
2019-01-30T05:43:30.803Z,98991.80
2019-01-30T05:46:06.976Z,98993.00
2019-01-30T05:48:40.379Z,98996.88
2019-01-30T05:51:18.209Z,98999.27
2019-01-30T05:53:51.549Z,98999.59
2019-01-30T05:56:35.121Z,99002.53
2019-01-30T05:59:10.527Z,99002.94
2019-01-30T06:01:47.200Z,99006.69
2019-01-30T06:04:20.801Z,99005.98
2019-01-30T06:06:54.481Z,99001.30
2019-01-30T06:09:35.368Z,99000.13
2019-01-30T06:12:09.035Z,99002.20
2019-01-30T06:14:45.543Z,99009.68
2019-01-30T06:17:20.638Z,98993.75
2019-01-30T06:19:54.083Z,98990.51
2019-01-30T06:22:29.004Z,98983.97
2019-01-30T06:25:04.329Z,98981.83
2019-01-30T06:27:40.553Z,98982.28
2019-01-30T06:30:18.608Z,98983.09
2019-01-30T06:32:52.076Z,98978.70
2019-01-30T06:35:26.554Z,98979.45
2019-01-30T06:38:04.314Z,98985.31
2019-01-30T06:40:39.406Z,98981.94
2019-01-30T06:43:12.835Z,98984.38
2019-01-30T06:45:52.455Z,98981.89
2019-01-30T06:48:32.034Z,98976.97
2019-01-30T06:51:07.358Z,98978.70
2019-01-30T06:53:42.541Z,98989.17
2019-01-30T06:56:19.008Z,98979.48
2019-01-30T06:58:55.665Z,98984.11
2019-01-30T07:01:39.230Z,98978.17
2019-01-30T07:04:19.967Z,98980.82
2019-01-30T07:06:53.366Z,98975.39
2019-01-30T07:09:26.770Z,98977.83
2019-01-30T07:12:02.802Z,98974.31
2019-01-30T07:14:42.574Z,98967.61
2019-01-30T07:17:16.230Z,98961.55
2019-01-30T07:19:49.661Z,98971.84
2019-01-30T07:22:24.491Z,98969.39
2019-01-30T07:24:57.904Z,98969.47
2019-01-30T07:27:34.539Z,98969.84
2019-01-30T07:30:13.797Z,98972.22
2019-01-30T07:32:47.319Z,98971.94
2019-01-30T07:35:25.172Z,98978.63
2019-01-30T07:37:58.960Z,98975.67
2019-01-30T07:40:32.411Z,98980.05
2019-01-30T07:43:08.285Z,98978.59
2019-01-30T07:45:48.074Z,98976.02
2019-01-30T07:48:27.172Z,98979.05
2019-01-30T07:51:01.468Z,98979.34
2019-01-30T07:53:40.395Z,98979.00
2019-01-30T07:56:15.480Z,98981.71
2019-01-30T07:58:48.897Z,98982.17
2019-01-30T08:01:29.072Z,98982.55
2019-01-30T08:04:05.041Z,98975.20
2019-01-30T08:06:38.649Z,98975.85
2019-01-30T08:09:27.805Z,98973.91
2019-01-30T08:11:52.655Z,98974.89
2019-01-30T08:14:26.058Z,98979.74
2019-01-30T08:17:01.148Z,98981.86
2019-01-30T08:19:36.131Z,98978.94
2019-01-30T08:22:09.577Z,98985.17
2019-01-30T08:24:43.098Z,98980.87
2019-01-30T08:27:20.861Z,98986.30
2019-01-30T08:29:57.460Z,98982.06
2019-01-30T08:32:31.356Z,98987.13
2019-01-30T08:35:08.996Z,98978.14
2019-01-30T08:37:42.553Z,98986.27
2019-01-30T08:40:17.548Z,98983.57
2019-01-30T08:42:52.637Z,98985.73
2019-01-30T08:45:29.861Z,98980.53
2019-01-30T08:48:07.669Z,98979.03
2019-01-30T08:50:44.678Z,98975.36
2019-01-30T08:53:28.924Z,98978.56
2019-01-30T08:56:05.780Z,98984.72
2019-01-30T08:58:39.145Z,98984.29
2019-01-30T09:01:12.571Z,98984.19
2019-01-30T09:03:46.076Z,98979.40
2019-01-30T09:06:19.822Z,98978.31
2019-01-30T09:08:53.244Z,98980.95
2019-01-30T09:11:26.800Z,98974.14
2019-01-30T09:14:00.249Z,98972.87
2019-01-30T09:16:33.665Z,98971.81
2019-01-30T09:19:10.390Z,98980.20
2019-01-30T09:21:43.839Z,98976.62
2019-01-30T09:24:17.342Z,98977.19
2019-01-30T09:26:53.597Z,98975.10
2019-01-30T09:29:30.068Z,98964.87
2019-01-30T09:32:03.615Z,98964.73
2019-01-30T09:34:36.931Z,98957.62
2019-01-30T09:37:10.459Z,98960.76
2019-01-30T09:39:45.186Z,98955.23
2019-01-30T09:42:21.379Z,98952.77
2019-01-30T09:44:54.685Z,98954.84
2019-01-30T09:47:31.086Z,98950.88
2019-01-30T09:50:07.614Z,98945.86
2019-01-30T09:52:43.873Z,98948.06
2019-01-30T09:55:18.828Z,98947.09
2019-01-30T09:57:56.169Z,98936.08
2019-01-30T10:00:38.591Z,98944.72
2019-01-30T10:03:10.918Z,98936.55
2019-01-30T10:05:44.356Z,98935.22
2019-01-30T10:08:20.542Z,98935.96
2019-01-30T10:10:56.934Z,98929.42
2019-01-30T10:13:30.292Z,98928.10
2019-01-30T10:16:05.451Z,98924.97
2019-01-30T10:18:42.754Z,98926.44
2019-01-30T10:21:16.154Z,98917.22
2019-01-30T10:23:52.106Z,98917.22
2019-01-30T10:26:28.408Z,98914.86
2019-01-30T10:29:03.402Z,98908.65
2019-01-30T10:31:41.121Z,98908.12
2019-01-30T10:34:16.212Z,98902.97
2019-01-30T10:36:52.119Z,98901.81
2019-01-30T10:39:32.705Z,98896.08
2019-01-30T10:42:07.793Z,98892.36
2019-01-30T10:44:41.318Z,98892.20
2019-01-30T10:47:14.724Z,98893.13
2019-01-30T10:49:49.681Z,98889.44
2019-01-30T10:52:24.611Z,98885.75
2019-01-30T10:55:01.122Z,98883.22
2019-01-30T10:57:34.577Z,98872.04
2019-01-30T11:00:21.851Z,98874.37
2019-01-30T11:02:55.379Z,98865.75
2019-01-30T11:05:30.428Z,98856.30
2019-01-30T11:08:05.516Z,98853.82
2019-01-30T11:10:39.254Z,98866.16
2019-01-30T11:13:15.063Z,98856.52
2019-01-30T11:15:48.666Z,98856.88
2019-01-30T11:18:24.018Z,98850.70
2019-01-30T11:20:57.438Z,98840.09
2019-01-30T11:23:30.952Z,98836.09
2019-01-30T11:26:04.436Z,98840.59
2019-01-30T11:28:40.387Z,98837.35
2019-01-30T11:31:15.267Z,98849.38
2019-01-30T11:33:51.928Z,98838.16
2019-01-30T11:36:29.406Z,98826.73
2019-01-30T11:39:07.708Z,98831.37
2019-01-30T11:41:42.583Z,98822.79
2019-01-30T11:44:16.074Z,98819.46
2019-01-30T11:46:49.707Z,98816.17
2019-01-30T11:49:23.206Z,98803.39
2019-01-30T11:51:56.638Z,98806.38
2019-01-30T11:54:38.640Z,98809.36
2019-01-30T11:57:08.404Z,98795.71
2019-01-30T11:59:41.806Z,98789.37
2019-01-30T12:02:15.239Z,98791.33
2019-01-30T12:04:53.015Z,98785.51
2019-01-30T12:07:26.453Z,98780.87
2019-01-30T12:10:01.491Z,98778.16
2019-01-30T12:12:38.243Z,98769.42
2019-01-30T12:15:14.753Z,98775.00
2019-01-30T12:17:48.202Z,98767.92
2019-01-30T12:20:21.730Z,98764.49
2019-01-30T12:22:56.479Z,98762.69
2019-01-30T12:25:32.867Z,98758.97
2019-01-30T12:28:04.835Z,98760.97
2019-01-30T12:33:13.840Z,98753.77
2019-01-30T12:35:47.249Z,98746.75
2019-01-30T12:38:20.760Z,98750.03
2019-01-30T12:40:54.176Z,98743.91
2019-01-30T12:43:30.627Z,98742.91
2019-01-30T12:46:08.319Z,98746.97
2019-01-30T12:48:48.898Z,98748.09
2019-01-30T12:51:21.892Z,98742.91
2019-01-30T12:53:58.505Z,98743.02
2019-01-30T12:56:31.914Z,98739.37
2019-01-30T12:59:08.581Z,98739.69
2019-01-30T13:01:42.176Z,98734.50
2019-01-30T13:04:15.612Z,98731.81
2019-01-30T13:06:51.983Z,98728.28
2019-01-30T13:09:28.638Z,98730.05
2019-01-30T13:12:02.069Z,98730.10
2019-01-30T13:14:37.369Z,98721.98
2019-01-30T13:17:12.524Z,98718.77
2019-01-30T13:19:47.630Z,98713.93
2019-01-30T13:22:22.730Z,98712.77
2019-01-30T13:24:58.585Z,98717.06
2019-01-30T13:27:35.042Z,98719.08
2019-01-30T13:30:36.388Z,98714.70
2019-01-30T13:33:14.157Z,98714.31
2019-01-30T13:35:48.563Z,98711.48
2019-01-30T13:38:23.627Z,98716.33
2019-01-30T13:40:57.029Z,98705.54
2019-01-30T13:43:31.954Z,98710.02
2019-01-30T13:46:09.297Z,98714.28
2019-01-30T13:48:42.823Z,98711.19
2019-01-30T13:51:16.239Z,98710.24
2019-01-30T13:53:49.695Z,98709.67
2019-01-30T13:56:23.144Z,98704.60
2019-01-30T13:58:56.618Z,98701.63
2019-01-30T14:01:34.632Z,98702.08
2019-01-30T14:04:12.817Z,98706.91
2019-01-30T14:06:46.225Z,98698.86
2019-01-30T14:09:22.782Z,98711.64
2019-01-30T14:12:02.415Z,98701.47
2019-01-30T14:14:38.669Z,98706.91
2019-01-30T14:17:14.830Z,98711.98
2019-01-30T14:19:52.118Z,98712.70
2019-01-30T14:22:28.666Z,98713.14
2019-01-30T14:25:02.105Z,98706.28
2019-01-30T14:27:39.384Z,98710.84
2019-01-30T14:30:18.500Z,98706.28
2019-01-30T14:32:54.777Z,98701.63
2019-01-30T14:35:30.549Z,98706.32
2019-01-30T14:38:06.956Z,98706.61
2019-01-30T14:40:43.289Z,98710.71
2019-01-30T14:43:18.131Z,98708.38
2019-01-30T14:48:54.401Z,98705.70
2019-01-30T14:51:29.445Z,98714.78
2019-01-30T14:54:04.158Z,98720.66
2019-01-30T14:56:37.574Z,98720.89
2019-01-30T14:59:11.037Z,98713.46
2019-01-30T15:01:44.668Z,98709.94
2019-01-30T15:04:18.101Z,98716.95
2019-01-30T15:06:51.553Z,98725.78
2019-01-30T15:09:24.982Z,98723.28
2019-01-30T15:11:58.661Z,98713.87
2019-01-30T15:14:32.106Z,98718.41
2019-01-30T15:17:05.739Z,98719.90
2019-01-30T15:19:39.278Z,98716.71
2019-01-30T15:22:21.741Z,98714.64
2019-01-30T15:24:56.769Z,98717.38
2019-01-30T15:45:17.588Z,98713.00
2019-01-30T15:47:53.291Z,98716.77
2019-01-30T15:50:29.684Z,98722.30
2019-01-30T15:53:11.655Z,98726.89
2019-01-30T15:55:45.210Z,98724.28
2019-01-30T15:58:20.073Z,98726.25
2019-01-30T16:01:02.339Z,98726.25
2019-01-30T16:03:35.821Z,98733.59
2019-01-30T16:06:11.051Z,98732.91
2019-01-30T16:08:46.234Z,98732.16
2019-01-30T16:11:19.863Z,98736.60
2019-01-30T16:13:55.849Z,98744.64
2019-01-30T16:16:28.795Z,98739.27
2019-01-30T16:19:02.254Z,98736.12
2019-01-30T16:21:39.730Z,98739.78
2019-01-30T16:24:15.866Z,98737.50
2019-01-30T16:26:50.818Z,98738.81
2019-01-30T16:29:24.264Z,98741.61
2019-01-30T16:31:57.689Z,98740.33
2019-01-30T16:34:31.058Z,98739.94
2019-01-30T16:37:06.170Z,98738.78
2019-01-30T16:39:39.683Z,98741.48
2019-01-30T16:42:14.612Z,98738.02
2019-01-30T16:44:48.060Z,98732.36
2019-01-30T16:47:21.472Z,98739.74
2019-01-30T16:49:57.915Z,98736.89
2019-01-30T16:52:31.436Z,98729.75
2019-01-30T16:55:11.027Z,98728.11
2019-01-30T16:57:46.004Z,98727.94
2019-01-30T17:00:23.808Z,98732.34
2019-01-30T17:02:58.986Z,98736.02
2019-01-30T17:05:35.522Z,98738.36
2019-01-30T17:08:16.336Z,98738.22
2019-01-30T17:10:54.006Z,98738.86
2019-01-30T17:13:30.175Z,98749.55
2019-01-30T17:16:03.730Z,98746.19
2019-01-30T17:18:44.361Z,98747.94
2019-01-30T17:21:24.384Z,98750.42
2019-01-30T17:23:59.294Z,98757.48
2019-01-30T17:26:32.783Z,98762.42
2019-01-30T17:29:07.658Z,98755.45
2019-01-30T17:31:42.749Z,98751.87
2019-01-30T17:34:16.401Z,98745.75
2019-01-30T17:36:50.841Z,98747.27
2019-01-30T17:39:30.192Z,98743.08
2019-01-30T17:42:01.124Z,98747.38
2019-01-30T17:44:34.691Z,98749.27
2019-01-30T17:47:10.634Z,98748.90
2019-01-30T17:49:47.084Z,98752.10
2019-01-30T17:52:20.914Z,98750.36
2019-01-30T17:55:06.193Z,98759.39
2019-01-30T17:57:42.907Z,98753.95
2019-01-30T18:00:21.101Z,98750.37
2019-01-30T18:02:57.607Z,98743.48
2019-01-30T18:05:32.701Z,98746.77
2019-01-30T18:08:09.096Z,98744.79
2019-01-30T18:10:47.727Z,98744.61
2019-01-30T18:13:24.112Z,98736.78
2019-01-30T18:15:57.553Z,98744.91
2019-01-30T18:18:30.961Z,98745.03
2019-01-30T18:21:04.476Z,98741.80
2019-01-30T18:23:37.896Z,98740.19
2019-01-30T18:26:11.345Z,98739.55
2019-01-30T18:28:53.447Z,98733.48
2019-01-30T18:31:29.061Z,98737.28
2019-01-30T18:34:05.352Z,98737.59
2019-01-30T18:36:47.806Z,98733.98
2019-01-30T18:40:17.890Z,98739.54
2019-01-30T18:43:02.993Z,98731.50
2019-01-30T18:45:36.591Z,98731.52
2019-01-30T18:50:50.787Z,98734.42
2019-01-30T18:53:24.275Z,98733.91
2019-01-30T18:55:57.777Z,98738.45
2019-01-30T18:58:31.339Z,98734.89
2019-01-30T19:01:06.885Z,98736.02
2019-01-30T19:03:40.652Z,98732.20
2019-01-30T19:06:14.285Z,98725.06
2019-01-30T19:08:47.827Z,98727.92
2019-01-30T19:11:21.292Z,98723.99
2019-01-30T19:13:54.899Z,98729.12
2019-01-30T19:16:28.505Z,98725.77
2019-01-30T19:19:02.033Z,98727.34
2019-01-30T19:21:35.619Z,98726.71
2019-01-30T19:24:09.160Z,98729.63
2019-01-30T19:26:42.693Z,98723.27
2019-01-30T19:29:16.334Z,98725.52
2019-01-30T19:31:50.164Z,98718.63
2019-01-30T19:34:23.750Z,98725.28
2019-01-30T19:37:03.460Z,98717.70
2019-01-30T19:39:32.664Z,98729.92
2019-01-30T19:42:06.169Z,98727.27
2019-01-30T19:44:39.612Z,98731.72
2019-01-30T19:47:13.239Z,98731.52
2019-01-30T19:49:46.736Z,98737.67
2019-01-30T19:52:20.301Z,98736.88
2019-01-30T19:54:53.780Z,98735.50
2019-01-30T19:57:27.302Z,98734.42
2019-01-30T20:00:00.767Z,98737.02
2019-01-30T20:02:34.280Z,98729.23
2019-01-30T20:05:10.801Z,98731.69
2019-01-30T20:07:44.316Z,98738.30
2019-01-30T20:10:23.689Z,98738.62
2019-01-30T20:12:57.333Z,98734.39
2019-01-30T20:15:31.270Z,98732.30
2019-01-30T20:18:05.153Z,98725.20
2019-01-30T20:20:38.646Z,98725.13
2019-01-30T20:23:12.890Z,98725.28
2019-01-30T20:25:46.399Z,98713.78
2019-01-30T20:28:19.965Z,98716.70
2019-01-30T20:30:53.503Z,98717.16
2019-01-30T20:33:26.958Z,98718.04
2019-01-30T20:36:00.561Z,98714.00
2019-01-30T20:38:34.085Z,98709.88
2019-01-30T20:41:07.745Z,98706.91
2019-01-30T20:43:41.558Z,98716.14
2019-01-30T20:46:15.214Z,98721.88
2019-01-30T20:48:51.828Z,98711.63
2019-01-30T20:51:24.218Z,98714.36
2019-01-30T20:54:00.591Z,98712.42
2019-01-30T20:56:33.153Z,98713.85
2019-01-30T20:59:06.698Z,98709.83
2019-01-30T21:01:40.234Z,98712.64
2019-01-30T21:04:13.870Z,98714.73
2019-01-30T21:06:47.400Z,98705.86
2019-01-30T21:09:21.179Z,98712.13
2019-01-30T21:11:54.803Z,98714.97
2019-01-30T21:14:28.509Z,98712.64
2019-01-30T21:17:02.062Z,98716.31
2019-01-30T21:19:35.572Z,98722.50
2019-01-30T21:22:09.166Z,98728.45
2019-01-30T21:24:43.143Z,98719.13
2019-01-30T21:27:16.596Z,98720.44
2019-01-30T21:29:50.947Z,98724.02
2019-01-30T21:32:24.410Z,98721.13
2019-01-30T21:34:57.957Z,98728.20
2019-01-30T21:37:31.418Z,98721.32
2019-01-30T21:40:07.956Z,98723.50
2019-01-30T21:42:42.643Z,98721.23
2019-01-30T21:45:23.475Z,98727.09
2019-01-30T21:47:57.082Z,98717.37
2019-01-30T21:50:30.888Z,98718.25
2019-01-30T21:53:05.144Z,98721.09
2019-01-30T21:55:38.767Z,98723.69
2019-01-30T21:58:14.044Z,98724.82
2019-01-30T22:00:48.203Z,98723.45
2019-01-30T22:03:22.010Z,98724.25
2019-01-30T22:05:57.860Z,98725.34
2019-01-30T22:08:31.280Z,98722.86
2019-01-30T22:11:05.083Z,98720.64
2019-01-30T22:13:38.765Z,98722.78
2019-01-30T22:16:12.230Z,98721.76
2019-01-30T22:18:45.785Z,98716.70
2019-01-30T22:21:19.196Z,98714.92
2019-01-30T22:23:52.636Z,98724.82
2019-01-30T22:26:26.123Z,98722.73
2019-01-30T22:28:59.509Z,98724.93
2019-01-30T22:31:32.933Z,98724.75
2019-01-30T22:34:06.491Z,98717.09
2019-01-30T22:36:39.965Z,98715.30
2019-01-30T22:39:13.430Z,98713.68
2019-01-30T22:41:46.839Z,98716.11
2019-01-30T22:44:20.294Z,98722.58
2019-01-30T22:46:53.712Z,98724.91
2019-01-30T22:49:27.357Z,98735.77
2019-01-30T22:52:00.820Z,98722.81
2019-01-30T22:54:34.300Z,98727.73
2019-01-30T22:57:07.782Z,98729.96
2019-01-30T22:59:41.587Z,98724.98
2019-01-30T23:02:15.166Z,98732.34
2019-01-30T23:04:54.322Z,98725.88
2019-01-30T23:07:37.064Z,98729.73
2019-01-30T23:10:33.326Z,98725.40
2019-01-30T23:13:12.500Z,98726.99
2019-01-30T23:16:00.892Z,98726.47
2019-01-30T23:18:46.170Z,98725.03
2019-01-30T23:21:25.424Z,98735.48
2019-01-30T23:24:21.398Z,98730.40
2019-01-30T23:27:03.743Z,98731.30
2019-01-30T23:29:51.894Z,98732.51
2019-01-30T23:32:34.522Z,98727.66
2019-01-30T23:35:37.066Z,98727.97
2019-01-30T23:38:16.479Z,98728.72
2019-01-30T23:41:01.847Z,98727.45
2019-01-30T23:43:41.456Z,98727.56
2019-01-30T23:46:21.002Z,98734.38
2019-01-30T23:48:57.594Z,98734.81
2019-01-30T23:51:52.335Z,98731.02
2019-01-30T23:54:31.515Z,98730.33
2019-01-30T23:57:22.938Z,98742.14
